Burton, Idaho
Current Conditions -  °F | °C
As of 12:53 PM on Friday 24 Oct 2014 (Local Time) from KRXE Reporting Station
Broken Clouds Broken Clouds  
Wind Chill: 61°   Ceiling: 9500
Heat Index: 61°   Visibility: 10mi
Dew Point: 37°   Wind: 6mph
Humidity: 41%   Direction: 190°S
Pressure: 30.15"   Gusts: NA
Location:  43.7568°N, 111.624°W
Report Text: KRXE 241853Z AUTO 19005KT 10SM BKN095 16/03 A3015 RMK AO2 SLP185 T01610028
Loading
Personal Weather Stations






























Interactive Weather Map
Tropical Storm Tracking
New forecast layout! Learn more

10-Day Weather Forecast

Advertisements
Track Severe Weather on mobile